sensor_id;sensor_type;location;lat;lon;timestamp;P1;durP1;ratioP1;P2;durP2;ratioP2
62574;SDS011;70119;45.638;11.714;2023-12-20T00:01:47;13.20;;;10.30;;
62574;SDS011;70119;45.638;11.714;2023-12-20T00:04:14;13.32;;;10.35;;
62574;SDS011;70119;45.638;11.714;2023-12-20T00:06:40;12.05;;;9.80;;
62574;SDS011;70119;45.638;11.714;2023-12-20T00:09:06;14.40;;;10.60;;
62574;SDS011;70119;45.638;11.714;2023-12-20T00:11:31;13.88;;;9.93;;
62574;SDS011;70119;45.638;11.714;2023-12-20T00:13:57;13.30;;;9.93;;
62574;SDS011;70119;45.638;11.714;2023-12-20T00:16:23;13.95;;;10.40;;
62574;SDS011;70119;45.638;11.714;2023-12-20T00:18:49;14.75;;;10.30;;
62574;SDS011;70119;45.638;11.714;2023-12-20T00:21:15;13.80;;;10.57;;
62574;SDS011;70119;45.638;11.714;2023-12-20T00:23:40;13.50;;;10.20;;
62574;SDS011;70119;45.638;11.714;2023-12-20T00:26:06;13.38;;;10.88;;
62574;SDS011;70119;45.638;11.714;2023-12-20T00:28:32;13.73;;;10.68;;
62574;SDS011;70119;45.638;11.714;2023-12-20T00:30:58;13.32;;;10.50;;
62574;SDS011;70119;45.638;11.714;2023-12-20T00:33:24;14.50;;;11.10;;
62574;SDS011;70119;45.638;11.714;2023-12-20T00:35:49;15.18;;;11.68;;
62574;SDS011;70119;45.638;11.714;2023-12-20T00:38:15;14.18;;;10.23;;
62574;SDS011;70119;45.638;11.714;2023-12-20T00:40:41;16.10;;;11.13;;
62574;SDS011;70119;45.638;11.714;2023-12-20T00:43:07;16.15;;;10.90;;
62574;SDS011;70119;45.638;11.714;2023-12-20T00:45:33;15.15;;;10.73;;
62574;SDS011;70119;45.638;11.714;2023-12-20T00:47:59;15.45;;;11.13;;
62574;SDS011;70119;45.638;11.714;2023-12-20T00:50:24;13.75;;;10.80;;
62574;SDS011;70119;45.638;11.714;2023-12-20T00:52:50;15.30;;;11.55;;
62574;SDS011;70119;45.638;11.714;2023-12-20T00:55:16;14.05;;;10.48;;
62574;SDS011;70119;45.638;11.714;2023-12-20T00:57:42;15.63;;;11.02;;
62574;SDS011;70119;45.638;11.714;2023-12-20T01:00:08;14.77;;;11.32;;
62574;SDS011;70119;45.638;11.714;2023-12-20T01:02:38;13.98;;;10.75;;
62574;SDS011;70119;45.638;11.714;2023-12-20T01:05:04;14.48;;;10.98;;
62574;SDS011;70119;45.638;11.714;2023-12-20T01:07:32;15.75;;;11.68;;
62574;SDS011;70119;45.638;11.714;2023-12-20T01:09:58;16.27;;;11.15;;
62574;SDS011;70119;45.638;11.714;2023-12-20T01:12:24;14.82;;;11.10;;
62574;SDS011;70119;45.638;11.714;2023-12-20T01:14:49;14.32;;;10.93;;
62574;SDS011;70119;45.638;11.714;2023-12-20T01:17:15;14.88;;;11.88;;
62574;SDS011;70119;45.638;11.714;2023-12-20T01:19:41;15.82;;;11.75;;
62574;SDS011;70119;45.638;11.714;2023-12-20T01:22:07;15.57;;;11.40;;
62574;SDS011;70119;45.638;11.714;2023-12-20T01:24:33;15.32;;;11.38;;
62574;SDS011;70119;45.638;11.714;2023-12-20T01:26:58;15.30;;;11.23;;
62574;SDS011;70119;45.638;11.714;2023-12-20T01:29:24;15.23;;;11.85;;
62574;SDS011;70119;45.638;11.714;2023-12-20T01:31:50;15.05;;;11.25;;
62574;SDS011;70119;45.638;11.714;2023-12-20T01:34:16;15.38;;;11.35;;
62574;SDS011;70119;45.638;11.714;2023-12-20T01:36:42;15.70;;;11.75;;
62574;SDS011;70119;45.638;11.714;2023-12-20T01:39:08;14.52;;;11.43;;
62574;SDS011;70119;45.638;11.714;2023-12-20T01:41:34;16.77;;;11.40;;
62574;SDS011;70119;45.638;11.714;2023-12-20T01:44:00;15.93;;;11.98;;
62574;SDS011;70119;45.638;11.714;2023-12-20T01:46:26;15.57;;;11.88;;
62574;SDS011;70119;45.638;11.714;2023-12-20T01:48:52;17.50;;;12.27;;
62574;SDS011;70119;45.638;11.714;2023-12-20T01:51:18;15.23;;;11.55;;
62574;SDS011;70119;45.638;11.714;2023-12-20T01:53:45;16.52;;;11.80;;
62574;SDS011;70119;45.638;11.714;2023-12-20T01:56:12;15.88;;;12.23;;
62574;SDS011;70119;45.638;11.714;2023-12-20T01:58:39;14.65;;;11.52;;
62574;SDS011;70119;45.638;11.714;2023-12-20T02:01:10;15.88;;;11.75;;
62574;SDS011;70119;45.638;11.714;2023-12-20T02:03:36;14.65;;;11.45;;
62574;SDS011;70119;45.638;11.714;2023-12-20T02:06:03;16.63;;;12.10;;
62574;SDS011;70119;45.638;11.714;2023-12-20T02:08:30;16.48;;;12.23;;
62574;SDS011;70119;45.638;11.714;2023-12-20T02:10:56;16.85;;;12.65;;
62574;SDS011;70119;45.638;11.714;2023-12-20T02:13:22;16.80;;;12.13;;
62574;SDS011;70119;45.638;11.714;2023-12-20T02:15:48;16.58;;;12.10;;
62574;SDS011;70119;45.638;11.714;2023-12-20T02:18:14;16.88;;;12.40;;
62574;SDS011;70119;45.638;11.714;2023-12-20T02:20:42;16.38;;;12.02;;
62574;SDS011;70119;45.638;11.714;2023-12-20T02:23:07;14.77;;;11.43;;
62574;SDS011;70119;45.638;11.714;2023-12-20T02:25:33;16.83;;;12.52;;
62574;SDS011;70119;45.638;11.714;2023-12-20T02:27:59;16.33;;;11.82;;
62574;SDS011;70119;45.638;11.714;2023-12-20T02:30:26;15.77;;;12.23;;
62574;SDS011;70119;45.638;11.714;2023-12-20T02:32:52;17.77;;;12.23;;
62574;SDS011;70119;45.638;11.714;2023-12-20T02:35:18;15.82;;;11.95;;
62574;SDS011;70119;45.638;11.714;2023-12-20T02:37:44;15.77;;;12.20;;
62574;SDS011;70119;45.638;11.714;2023-12-20T02:40:10;15.57;;;11.85;;
62574;SDS011;70119;45.638;11.714;2023-12-20T02:42:36;15.75;;;12.35;;
62574;SDS011;70119;45.638;11.714;2023-12-20T02:45:02;17.13;;;12.00;;
62574;SDS011;70119;45.638;11.714;2023-12-20T02:47:28;15.20;;;12.07;;
62574;SDS011;70119;45.638;11.714;2023-12-20T02:49:55;15.82;;;12.45;;
62574;SDS011;70119;45.638;11.714;2023-12-20T02:52:21;16.13;;;12.23;;
62574;SDS011;70119;45.638;11.714;2023-12-20T02:54:50;17.27;;;12.68;;
62574;SDS011;70119;45.638;11.714;2023-12-20T02:57:16;15.77;;;12.10;;
62574;SDS011;70119;45.638;11.714;2023-12-20T02:59:42;14.95;;;12.18;;
62574;SDS011;70119;45.638;11.714;2023-12-20T03:02:07;16.85;;;12.55;;
62574;SDS011;70119;45.638;11.714;2023-12-20T03:04:33;15.93;;;12.52;;
62574;SDS011;70119;45.638;11.714;2023-12-20T03:06:59;15.25;;;11.85;;
62574;SDS011;70119;45.638;11.714;2023-12-20T03:09:25;17.30;;;12.85;;
62574;SDS011;70119;45.638;11.714;2023-12-20T03:11:51;15.13;;;12.00;;
62574;SDS011;70119;45.638;11.714;2023-12-20T03:14:16;15.57;;;12.32;;
62574;SDS011;70119;45.638;11.714;2023-12-20T03:16:46;16.58;;;12.13;;
62574;SDS011;70119;45.638;11.714;2023-12-20T03:19:14;18.25;;;12.70;;
62574;SDS011;70119;45.638;11.714;2023-12-20T03:21:41;17.23;;;12.57;;
62574;SDS011;70119;45.638;11.714;2023-12-20T03:24:07;16.80;;;12.70;;
62574;SDS011;70119;45.638;11.714;2023-12-20T03:26:33;16.08;;;12.23;;
62574;SDS011;70119;45.638;11.714;2023-12-20T03:28:58;16.70;;;12.52;;
62574;SDS011;70119;45.638;11.714;2023-12-20T03:31:24;16.33;;;12.13;;
62574;SDS011;70119;45.638;11.714;2023-12-20T03:33:50;16.92;;;12.35;;
62574;SDS011;70119;45.638;11.714;2023-12-20T03:36:18;16.98;;;12.48;;
62574;SDS011;70119;45.638;11.714;2023-12-20T03:38:45;17.88;;;12.50;;
62574;SDS011;70119;45.638;11.714;2023-12-20T03:41:11;15.73;;;12.25;;
62574;SDS011;70119;45.638;11.714;2023-12-20T03:43:37;15.73;;;11.93;;
62574;SDS011;70119;45.638;11.714;2023-12-20T03:46:03;15.70;;;12.50;;
62574;SDS011;70119;45.638;11.714;2023-12-20T03:48:29;15.60;;;12.43;;
62574;SDS011;70119;45.638;11.714;2023-12-20T03:50:56;16.55;;;12.50;;
62574;SDS011;70119;45.638;11.714;2023-12-20T03:53:22;15.55;;;12.35;;
62574;SDS011;70119;45.638;11.714;2023-12-20T03:55:48;16.55;;;12.18;;
62574;SDS011;70119;45.638;11.714;2023-12-20T03:58:14;16.38;;;12.40;;
62574;SDS011;70119;45.638;11.714;2023-12-20T04:00:39;16.33;;;12.20;;
62574;SDS011;70119;45.638;11.714;2023-12-20T04:03:05;17.90;;;13.18;;
62574;SDS011;70119;45.638;11.714;2023-12-20T04:05:32;17.05;;;12.68;;
62574;SDS011;70119;45.638;11.714;2023-12-20T04:07:57;15.65;;;12.40;;
62574;SDS011;70119;45.638;11.714;2023-12-20T04:10:24;15.95;;;12.45;;
62574;SDS011;70119;45.638;11.714;2023-12-20T04:12:50;16.02;;;12.25;;
62574;SDS011;70119;45.638;11.714;2023-12-20T04:15:16;16.55;;;12.85;;
62574;SDS011;70119;45.638;11.714;2023-12-20T04:17:42;15.60;;;11.90;;
62574;SDS011;70119;45.638;11.714;2023-12-20T04:20:08;17.05;;;12.13;;
62574;SDS011;70119;45.638;11.714;2023-12-20T04:22:34;16.33;;;12.27;;
62574;SDS011;70119;45.638;11.714;2023-12-20T04:25:00;16.65;;;12.27;;
62574;SDS011;70119;45.638;11.714;2023-12-20T04:27:25;15.18;;;11.90;;
62574;SDS011;70119;45.638;11.714;2023-12-20T04:29:51;14.98;;;12.07;;
62574;SDS011;70119;45.638;11.714;2023-12-20T04:32:17;17.10;;;12.20;;
62574;SDS011;70119;45.638;11.714;2023-12-20T04:34:43;15.55;;;11.90;;
62574;SDS011;70119;45.638;11.714;2023-12-20T04:37:09;15.05;;;11.32;;
62574;SDS011;70119;45.638;11.714;2023-12-20T04:39:35;16.52;;;12.05;;
62574;SDS011;70119;45.638;11.714;2023-12-20T04:42:01;14.60;;;11.95;;
62574;SDS011;70119;45.638;11.714;2023-12-20T04:44:26;17.55;;;11.98;;
62574;SDS011;70119;45.638;11.714;2023-12-20T04:46:52;15.40;;;12.02;;
62574;SDS011;70119;45.638;11.714;2023-12-20T04:49:18;16.50;;;12.25;;
62574;SDS011;70119;45.638;11.714;2023-12-20T04:51:44;15.73;;;12.23;;
62574;SDS011;70119;45.638;11.714;2023-12-20T04:54:10;14.95;;;11.68;;
62574;SDS011;70119;45.638;11.714;2023-12-20T04:56:35;15.88;;;12.07;;
62574;SDS011;70119;45.638;11.714;2023-12-20T04:59:01;15.20;;;11.93;;
62574;SDS011;70119;45.638;11.714;2023-12-20T05:01:27;15.20;;;12.02;;
62574;SDS011;70119;45.638;11.714;2023-12-20T05:03:53;16.23;;;11.68;;
62574;SDS011;70119;45.638;11.714;2023-12-20T05:06:19;15.38;;;12.05;;
62574;SDS011;70119;45.638;11.714;2023-12-20T05:08:44;15.55;;;11.60;;
62574;SDS011;70119;45.638;11.714;2023-12-20T05:11:10;15.77;;;11.65;;
62574;SDS011;70119;45.638;11.714;2023-12-20T05:13:39;15.65;;;11.60;;
62574;SDS011;70119;45.638;11.714;2023-12-20T05:16:05;15.07;;;11.55;;
62574;SDS011;70119;45.638;11.714;2023-12-20T05:18:31;14.00;;;11.43;;
62574;SDS011;70119;45.638;11.714;2023-12-20T05:20:56;16.02;;;12.10;;
62574;SDS011;70119;45.638;11.714;2023-12-20T05:23:23;15.48;;;11.57;;
62574;SDS011;70119;45.638;11.714;2023-12-20T05:25:49;16.98;;;12.88;;
62574;SDS011;70119;45.638;11.714;2023-12-20T05:28:15;14.95;;;12.05;;
62574;SDS011;70119;45.638;11.714;2023-12-20T05:30:40;15.48;;;11.88;;
62574;SDS011;70119;45.638;11.714;2023-12-20T05:33:06;16.38;;;12.18;;
62574;SDS011;70119;45.638;11.714;2023-12-20T05:35:32;14.80;;;11.63;;
62574;SDS011;70119;45.638;11.714;2023-12-20T05:37:58;14.93;;;11.73;;
62574;SDS011;70119;45.638;11.714;2023-12-20T05:40:24;14.65;;;11.35;;
62574;SDS011;70119;45.638;11.714;2023-12-20T05:42:50;15.15;;;11.65;;
62574;SDS011;70119;45.638;11.714;2023-12-20T05:45:15;14.68;;;11.30;;
62574;SDS011;70119;45.638;11.714;2023-12-20T05:47:41;15.50;;;11.43;;
62574;SDS011;70119;45.638;11.714;2023-12-20T05:50:07;15.40;;;11.32;;
62574;SDS011;70119;45.638;11.714;2023-12-20T05:52:34;14.48;;;11.45;;
62574;SDS011;70119;45.638;11.714;2023-12-20T05:55:00;15.35;;;11.82;;
62574;SDS011;70119;45.638;11.714;2023-12-20T05:57:28;15.52;;;11.50;;
62574;SDS011;70119;45.638;11.714;2023-12-20T05:59:54;17.00;;;11.85;;
62574;SDS011;70119;45.638;11.714;2023-12-20T06:02:20;14.80;;;11.68;;
62574;SDS011;70119;45.638;11.714;2023-12-20T06:04:46;16.00;;;11.60;;
62574;SDS011;70119;45.638;11.714;2023-12-20T06:07:12;15.07;;;11.73;;
62574;SDS011;70119;45.638;11.714;2023-12-20T06:09:38;14.63;;;11.32;;
62574;SDS011;70119;45.638;11.714;2023-12-20T06:12:04;15.10;;;11.52;;
62574;SDS011;70119;45.638;11.714;2023-12-20T06:14:30;14.50;;;11.70;;
62574;SDS011;70119;45.638;11.714;2023-12-20T06:16:57;14.70;;;11.32;;
62574;SDS011;70119;45.638;11.714;2023-12-20T06:19:23;14.07;;;11.20;;
62574;SDS011;70119;45.638;11.714;2023-12-20T06:21:49;13.90;;;11.05;;
62574;SDS011;70119;45.638;11.714;2023-12-20T06:24:15;14.25;;;10.70;;
62574;SDS011;70119;45.638;11.714;2023-12-20T06:26:41;15.93;;;11.55;;
62574;SDS011;70119;45.638;11.714;2023-12-20T06:29:08;16.17;;;12.30;;
62574;SDS011;70119;45.638;11.714;2023-12-20T06:31:34;15.70;;;11.88;;
62574;SDS011;70119;45.638;11.714;2023-12-20T06:34:01;13.98;;;10.93;;
62574;SDS011;70119;45.638;11.714;2023-12-20T06:36:28;15.05;;;11.30;;
62574;SDS011;70119;45.638;11.714;2023-12-20T06:38:55;14.43;;;11.07;;
62574;SDS011;70119;45.638;11.714;2023-12-20T06:41:24;13.88;;;11.23;;
62574;SDS011;70119;45.638;11.714;2023-12-20T06:43:53;14.27;;;10.90;;
62574;SDS011;70119;45.638;11.714;2023-12-20T06:46:24;14.60;;;10.75;;
62574;SDS011;70119;45.638;11.714;2023-12-20T06:48:51;13.18;;;10.43;;
62574;SDS011;70119;45.638;11.714;2023-12-20T06:51:17;15.50;;;11.10;;
62574;SDS011;70119;45.638;11.714;2023-12-20T06:53:44;15.30;;;11.07;;
62574;SDS011;70119;45.638;11.714;2023-12-20T06:56:11;13.93;;;10.85;;
62574;SDS011;70119;45.638;11.714;2023-12-20T06:58:41;13.43;;;10.50;;
62574;SDS011;70119;45.638;11.714;2023-12-20T07:01:11;14.82;;;10.75;;
62574;SDS011;70119;45.638;11.714;2023-12-20T07:03:40;13.40;;;10.38;;
62574;SDS011;70119;45.638;11.714;2023-12-20T07:06:06;17.15;;;10.60;;
62574;SDS011;70119;45.638;11.714;2023-12-20T07:08:33;12.63;;;10.13;;
62574;SDS011;70119;45.638;11.714;2023-12-20T07:10:59;13.98;;;10.75;;
62574;SDS011;70119;45.638;11.714;2023-12-20T07:13:25;13.57;;;10.05;;
62574;SDS011;70119;45.638;11.714;2023-12-20T07:15:50;14.02;;;10.40;;
62574;SDS011;70119;45.638;11.714;2023-12-20T07:18:16;13.27;;;10.00;;
62574;SDS011;70119;45.638;11.714;2023-12-20T07:20:43;14.65;;;10.32;;
62574;SDS011;70119;45.638;11.714;2023-12-20T07:23:13;14.48;;;10.77;;
62574;SDS011;70119;45.638;11.714;2023-12-20T07:25:39;13.18;;;9.93;;
62574;SDS011;70119;45.638;11.714;2023-12-20T07:28:05;13.60;;;9.95;;
62574;SDS011;70119;45.638;11.714;2023-12-20T07:30:31;13.77;;;10.27;;
62574;SDS011;70119;45.638;11.714;2023-12-20T07:32:57;12.48;;;9.70;;
62574;SDS011;70119;45.638;11.714;2023-12-20T07:35:23;13.00;;;9.68;;
62574;SDS011;70119;45.638;11.714;2023-12-20T07:37:51;13.48;;;10.18;;
62574;SDS011;70119;45.638;11.714;2023-12-20T07:40:20;13.38;;;9.77;;
62574;SDS011;70119;45.638;11.714;2023-12-20T07:42:48;11.95;;;9.20;;
62574;SDS011;70119;45.638;11.714;2023-12-20T07:45:14;13.05;;;9.77;;
62574;SDS011;70119;45.638;11.714;2023-12-20T07:47:40;13.48;;;10.10;;
62574;SDS011;70119;45.638;11.714;2023-12-20T07:50:06;14.05;;;9.60;;
62574;SDS011;70119;45.638;11.714;2023-12-20T07:52:32;13.68;;;10.02;;
62574;SDS011;70119;45.638;11.714;2023-12-20T07:54:58;15.35;;;9.98;;
62574;SDS011;70119;45.638;11.714;2023-12-20T07:57:24;12.85;;;9.60;;
62574;SDS011;70119;45.638;11.714;2023-12-20T07:59:50;13.65;;;9.57;;
62574;SDS011;70119;45.638;11.714;2023-12-20T08:02:16;13.85;;;10.40;;
62574;SDS011;70119;45.638;11.714;2023-12-20T08:04:41;13.43;;;9.50;;
62574;SDS011;70119;45.638;11.714;2023-12-20T08:07:07;14.63;;;9.95;;
62574;SDS011;70119;45.638;11.714;2023-12-20T08:09:33;12.98;;;9.65;;
62574;SDS011;70119;45.638;11.714;2023-12-20T08:12:01;13.30;;;10.00;;
62574;SDS011;70119;45.638;11.714;2023-12-20T08:14:27;12.90;;;10.02;;
62574;SDS011;70119;45.638;11.714;2023-12-20T08:16:53;12.90;;;9.27;;
62574;SDS011;70119;45.638;11.714;2023-12-20T08:19:19;13.63;;;9.82;;
62574;SDS011;70119;45.638;11.714;2023-12-20T08:21:45;13.32;;;9.68;;
62574;SDS011;70119;45.638;11.714;2023-12-20T08:24:11;12.43;;;9.52;;
62574;SDS011;70119;45.638;11.714;2023-12-20T08:26:37;11.82;;;9.05;;
62574;SDS011;70119;45.638;11.714;2023-12-20T08:29:02;13.73;;;9.90;;
62574;SDS011;70119;45.638;11.714;2023-12-20T08:31:28;12.05;;;9.45;;
62574;SDS011;70119;45.638;11.714;2023-12-20T08:33:54;13.35;;;9.35;;
62574;SDS011;70119;45.638;11.714;2023-12-20T08:36:20;13.23;;;9.75;;
62574;SDS011;70119;45.638;11.714;2023-12-20T08:38:47;13.88;;;10.00;;
62574;SDS011;70119;45.638;11.714;2023-12-20T08:41:13;14.60;;;9.95;;
62574;SDS011;70119;45.638;11.714;2023-12-20T08:43:39;15.38;;;9.88;;
62574;SDS011;70119;45.638;11.714;2023-12-20T08:46:05;14.23;;;9.20;;
62574;SDS011;70119;45.638;11.714;2023-12-20T08:48:31;12.88;;;9.48;;
62574;SDS011;70119;45.638;11.714;2023-12-20T08:50:57;12.23;;;9.35;;
62574;SDS011;70119;45.638;11.714;2023-12-20T08:53:23;15.27;;;9.32;;
62574;SDS011;70119;45.638;11.714;2023-12-20T08:55:50;14.30;;;9.77;;
62574;SDS011;70119;45.638;11.714;2023-12-20T08:58:16;11.38;;;8.90;;
62574;SDS011;70119;45.638;11.714;2023-12-20T09:00:42;12.40;;;9.40;;
62574;SDS011;70119;45.638;11.714;2023-12-20T09:03:07;13.75;;;9.50;;
62574;SDS011;70119;45.638;11.714;2023-12-20T09:05:34;12.73;;;9.18;;
62574;SDS011;70119;45.638;11.714;2023-12-20T09:08:00;12.70;;;8.90;;
62574;SDS011;70119;45.638;11.714;2023-12-20T09:10:26;13.32;;;9.50;;
62574;SDS011;70119;45.638;11.714;2023-12-20T09:12:52;12.40;;;9.13;;
62574;SDS011;70119;45.638;11.714;2023-12-20T09:15:23;12.38;;;8.95;;
62574;SDS011;70119;45.638;11.714;2023-12-20T09:17:50;12.45;;;8.93;;
62574;SDS011;70119;45.638;11.714;2023-12-20T09:20:15;12.70;;;9.65;;
62574;SDS011;70119;45.638;11.714;2023-12-20T09:22:41;11.75;;;9.32;;
62574;SDS011;70119;45.638;11.714;2023-12-20T09:25:09;13.60;;;9.93;;
62574;SDS011;70119;45.638;11.714;2023-12-20T09:27:35;12.40;;;10.40;;
62574;SDS011;70119;45.638;11.714;2023-12-20T09:30:02;12.70;;;10.20;;
62574;SDS011;70119;45.638;11.714;2023-12-20T09:32:29;13.80;;;10.73;;
62574;SDS011;70119;45.638;11.714;2023-12-20T09:34:55;13.55;;;10.95;;
62574;SDS011;70119;45.638;11.714;2023-12-20T09:37:20;15.45;;;11.45;;
62574;SDS011;70119;45.638;11.714;2023-12-20T09:39:46;16.33;;;12.35;;
62574;SDS011;70119;45.638;11.714;2023-12-20T09:42:12;15.07;;;13.18;;
62574;SDS011;70119;45.638;11.714;2023-12-20T09:44:47;18.05;;;14.55;;
62574;SDS011;70119;45.638;11.714;2023-12-20T09:47:12;18.30;;;15.15;;
62574;SDS011;70119;45.638;11.714;2023-12-20T09:49:41;19.38;;;16.55;;
62574;SDS011;70119;45.638;11.714;2023-12-20T09:52:09;22.33;;;17.23;;
62574;SDS011;70119;45.638;11.714;2023-12-20T09:54:36;21.90;;;18.02;;
62574;SDS011;70119;45.638;11.714;2023-12-20T09:57:02;22.75;;;18.98;;
62574;SDS011;70119;45.638;11.714;2023-12-20T09:59:29;22.52;;;18.55;;
62574;SDS011;70119;45.638;11.714;2023-12-20T10:01:55;23.15;;;19.67;;
62574;SDS011;70119;45.638;11.714;2023-12-20T10:04:22;22.95;;;19.20;;
62574;SDS011;70119;45.638;11.714;2023-12-20T10:06:48;23.77;;;18.42;;
62574;SDS011;70119;45.638;11.714;2023-12-20T10:09:14;22.98;;;19.45;;
62574;SDS011;70119;45.638;11.714;2023-12-20T10:11:39;23.60;;;20.30;;
62574;SDS011;70119;45.638;11.714;2023-12-20T10:14:06;24.80;;;20.40;;
62574;SDS011;70119;45.638;11.714;2023-12-20T10:16:32;25.50;;;21.20;;
62574;SDS011;70119;45.638;11.714;2023-12-20T10:18:59;33.20;;;27.27;;
62574;SDS011;70119;45.638;11.714;2023-12-20T10:21:26;43.55;;;34.83;;
62574;SDS011;70119;45.638;11.714;2023-12-20T10:23:55;50.90;;;37.50;;
62574;SDS011;70119;45.638;11.714;2023-12-20T10:26:22;54.80;;;39.97;;
62574;SDS011;70119;45.638;11.714;2023-12-20T10:29:01;57.72;;;41.47;;
62574;SDS011;70119;45.638;11.714;2023-12-20T10:31:32;58.05;;;43.35;;
62574;SDS011;70119;45.638;11.714;2023-12-20T10:34:00;59.28;;;42.55;;
62574;SDS011;70119;45.638;11.714;2023-12-20T10:36:28;60.83;;;43.60;;
62574;SDS011;70119;45.638;11.714;2023-12-20T10:38:55;63.63;;;43.40;;
62574;SDS011;70119;45.638;11.714;2023-12-20T10:41:30;62.30;;;45.22;;
62574;SDS011;70119;45.638;11.714;2023-12-20T10:46:28;64.60;;;45.88;;
62574;SDS011;70119;45.638;11.714;2023-12-20T10:48:55;66.05;;;46.03;;
62574;SDS011;70119;45.638;11.714;2023-12-20T10:51:22;67.03;;;46.65;;
62574;SDS011;70119;45.638;11.714;2023-12-20T10:53:49;61.10;;;44.67;;
62574;SDS011;70119;45.638;11.714;2023-12-20T10:56:17;66.50;;;47.03;;
62574;SDS011;70119;45.638;11.714;2023-12-20T10:58:45;65.40;;;46.50;;
62574;SDS011;70119;45.638;11.714;2023-12-20T11:01:13;66.90;;;46.20;;
62574;SDS011;70119;45.638;11.714;2023-12-20T11:03:42;66.60;;;47.10;;
62574;SDS011;70119;45.638;11.714;2023-12-20T11:12:09;62.22;;;44.70;;
62574;SDS011;70119;45.638;11.714;2023-12-20T11:14:50;64.88;;;45.55;;
62574;SDS011;70119;45.638;11.714;2023-12-20T11:17:18;61.58;;;43.35;;
62574;SDS011;70119;45.638;11.714;2023-12-20T11:22:25;62.92;;;46.05;;
62574;SDS011;70119;45.638;11.714;2023-12-20T11:24:53;66.80;;;45.55;;
62574;SDS011;70119;45.638;11.714;2023-12-20T11:27:20;63.42;;;44.75;;
62574;SDS011;70119;45.638;11.714;2023-12-20T11:29:54;63.72;;;44.95;;
62574;SDS011;70119;45.638;11.714;2023-12-20T11:34:54;61.97;;;44.67;;
62574;SDS011;70119;45.638;11.714;2023-12-20T11:37:21;61.00;;;44.20;;
62574;SDS011;70119;45.638;11.714;2023-12-20T11:39:59;59.28;;;42.70;;
62574;SDS011;70119;45.638;11.714;2023-12-20T11:42:50;60.47;;;43.60;;
62574;SDS011;70119;45.638;11.714;2023-12-20T11:45:17;58.70;;;42.63;;
62574;SDS011;70119;45.638;11.714;2023-12-20T11:47:48;59.65;;;42.20;;
62574;SDS011;70119;45.638;11.714;2023-12-20T11:50:15;60.65;;;43.92;;
62574;SDS011;70119;45.638;11.714;2023-12-20T11:52:41;61.53;;;41.13;;
62574;SDS011;70119;45.638;11.714;2023-12-20T11:55:07;58.50;;;42.30;;
62574;SDS011;70119;45.638;11.714;2023-12-20T11:57:33;52.00;;;38.47;;
62574;SDS011;70119;45.638;11.714;2023-12-20T11:59:59;51.88;;;36.90;;
62574;SDS011;70119;45.638;11.714;2023-12-20T12:02:25;52.28;;;37.70;;
62574;SDS011;70119;45.638;11.714;2023-12-20T12:04:51;57.75;;;40.95;;
62574;SDS011;70119;45.638;11.714;2023-12-20T12:07:17;50.65;;;36.20;;
62574;SDS011;70119;45.638;11.714;2023-12-20T12:09:43;55.10;;;39.92;;
62574;SDS011;70119;45.638;11.714;2023-12-20T12:12:09;55.25;;;38.85;;
62574;SDS011;70119;45.638;11.714;2023-12-20T12:14:37;55.92;;;39.90;;
62574;SDS011;70119;45.638;11.714;2023-12-20T12:17:03;57.13;;;41.20;;
62574;SDS011;70119;45.638;11.714;2023-12-20T12:19:30;54.28;;;39.88;;
62574;SDS011;70119;45.638;11.714;2023-12-20T12:22:04;55.22;;;39.80;;
62574;SDS011;70119;45.638;11.714;2023-12-20T12:24:40;55.22;;;38.25;;
62574;SDS011;70119;45.638;11.714;2023-12-20T12:27:09;58.70;;;42.42;;
62574;SDS011;70119;45.638;11.714;2023-12-20T12:29:37;66.13;;;45.80;;
62574;SDS011;70119;45.638;11.714;2023-12-20T12:32:07;65.90;;;46.42;;
62574;SDS011;70119;45.638;11.714;2023-12-20T12:34:34;68.80;;;48.08;;
62574;SDS011;70119;45.638;11.714;2023-12-20T12:37:01;70.03;;;49.05;;
62574;SDS011;70119;45.638;11.714;2023-12-20T12:39:29;71.25;;;47.83;;
62574;SDS011;70119;45.638;11.714;2023-12-20T12:41:56;75.32;;;50.90;;
62574;SDS011;70119;45.638;11.714;2023-12-20T12:44:24;75.18;;;51.78;;
62574;SDS011;70119;45.638;11.714;2023-12-20T12:46:50;73.05;;;50.00;;
62574;SDS011;70119;45.638;11.714;2023-12-20T12:49:18;72.57;;;51.95;;
62574;SDS011;70119;45.638;11.714;2023-12-20T12:51:45;72.63;;;51.03;;
62574;SDS011;70119;45.638;11.714;2023-12-20T12:54:12;74.13;;;51.78;;
62574;SDS011;70119;45.638;11.714;2023-12-20T12:56:38;76.45;;;53.58;;
62574;SDS011;70119;45.638;11.714;2023-12-20T12:59:04;72.93;;;51.03;;
62574;SDS011;70119;45.638;11.714;2023-12-20T13:01:31;72.38;;;51.70;;
62574;SDS011;70119;45.638;11.714;2023-12-20T13:03:57;66.45;;;49.92;;
62574;SDS011;70119;45.638;11.714;2023-12-20T13:06:22;68.97;;;47.80;;
62574;SDS011;70119;45.638;11.714;2023-12-20T13:08:48;67.10;;;50.75;;
62574;SDS011;70119;45.638;11.714;2023-12-20T13:11:15;75.55;;;50.42;;
62574;SDS011;70119;45.638;11.714;2023-12-20T13:13:40;67.28;;;48.53;;
62574;SDS011;70119;45.638;11.714;2023-12-20T13:16:07;67.20;;;48.70;;
62574;SDS011;70119;45.638;11.714;2023-12-20T13:18:33;67.47;;;47.72;;
62574;SDS011;70119;45.638;11.714;2023-12-20T13:20:59;69.85;;;49.65;;
62574;SDS011;70119;45.638;11.714;2023-12-20T13:23:24;67.20;;;47.72;;
62574;SDS011;70119;45.638;11.714;2023-12-20T13:25:50;66.53;;;49.28;;
62574;SDS011;70119;45.638;11.714;2023-12-20T13:28:16;78.82;;;54.97;;
62574;SDS011;70119;45.638;11.714;2023-12-20T13:30:42;75.40;;;54.05;;
62574;SDS011;70119;45.638;11.714;2023-12-20T13:33:08;81.38;;;57.50;;
62574;SDS011;70119;45.638;11.714;2023-12-20T13:35:35;91.38;;;62.35;;
62574;SDS011;70119;45.638;11.714;2023-12-20T13:38:01;88.50;;;60.95;;
62574;SDS011;70119;45.638;11.714;2023-12-20T13:40:26;92.50;;;62.30;;
62574;SDS011;70119;45.638;11.714;2023-12-20T13:42:54;90.03;;;63.17;;
62574;SDS011;70119;45.638;11.714;2023-12-20T13:45:20;88.95;;;61.13;;
62574;SDS011;70119;45.638;11.714;2023-12-20T13:47:46;82.45;;;60.88;;
62574;SDS011;70119;45.638;11.714;2023-12-20T13:50:12;86.55;;;59.20;;
62574;SDS011;70119;45.638;11.714;2023-12-20T13:52:38;79.72;;;56.55;;
62574;SDS011;70119;45.638;11.714;2023-12-20T13:55:04;86.65;;;60.28;;
62574;SDS011;70119;45.638;11.714;2023-12-20T13:57:32;79.32;;;57.90;;
62574;SDS011;70119;45.638;11.714;2023-12-20T13:59:59;76.72;;;55.13;;
62574;SDS011;70119;45.638;11.714;2023-12-20T14:02:26;84.28;;;56.17;;
62574;SDS011;70119;45.638;11.714;2023-12-20T14:04:53;85.40;;;57.67;;
62574;SDS011;70119;45.638;11.714;2023-12-20T14:07:19;76.22;;;54.65;;
62574;SDS011;70119;45.638;11.714;2023-12-20T14:09:46;73.13;;;50.33;;
62574;SDS011;70119;45.638;11.714;2023-12-20T14:12:13;70.07;;;49.05;;
62574;SDS011;70119;45.638;11.714;2023-12-20T14:14:42;73.25;;;51.63;;
62574;SDS011;70119;45.638;11.714;2023-12-20T14:17:09;74.18;;;50.47;;
62574;SDS011;70119;45.638;11.714;2023-12-20T14:19:36;69.38;;;48.42;;
62574;SDS011;70119;45.638;11.714;2023-12-20T14:22:02;72.13;;;51.55;;